Time;durP1;ratioP1;P1;durP2;ratioP2;P2;SDS_P1;SDS_P2;PMS_P1;PMS_P2;Temp;Humidity;BMP_temperature;BMP_pressure;BME280_temperature;BME280_humidity;BME280_pressure;Samples;Min_cycle;Max_cycle;Signal;HPM_P1;HPM_P2
2024/01/16 00:00:15;;;;;;;1.92;1.75;;;0.90;99.90;;;;;;5056280;28;20267;-52
2024/01/16 00:02:43;;;;;;;6.93;2.38;;;0.90;99.90;;;;;;5067183;28;20272;-52
2024/01/16 00:05:13;;;;;;;5.22;2.33;;;0.80;99.90;;;;;;5050911;28;20202;-52
2024/01/16 00:07:41;;;;;;;3.72;1.95;;;0.80;99.90;;;;;;5050490;28;20670;-54
2024/01/16 00:10:09;;;;;;;4.15;2.47;;;0.80;99.90;;;;;;5047335;28;20871;-54
2024/01/16 00:12:37;;;;;;;6.03;2.20;;;0.80;99.90;;;;;;5059128;28;20225;-52
2024/01/16 00:15:06;;;;;;;3.47;1.90;;;0.80;99.90;;;;;;5050184;28;20588;-53
2024/01/16 00:17:34;;;;;;;5.38;2.60;;;0.80;99.90;;;;;;5051579;28;20665;-57
2024/01/16 00:20:05;;;;;;;8.50;2.38;;;0.80;99.90;;;;;;5050945;28;20225;-52
2024/01/16 00:22:34;;;;;;;5.07;2.42;;;0.70;99.90;;;;;;5068186;28;20221;-52
2024/01/16 00:25:02;;;;;;;3.33;2.05;;;0.70;99.90;;;;;;5057797;28;20288;-52
2024/01/16 00:27:29;;;;;;;5.45;2.38;;;0.80;99.90;;;;;;5051153;28;20286;-52
2024/01/16 00:29:57;;;;;;;5.05;2.38;;;0.80;99.90;;;;;;5050280;28;20561;-52
2024/01/16 00:32:25;;;;;;;3.05;2.53;;;0.80;99.90;;;;;;5050945;28;20303;-52
2024/01/16 00:34:53;;;;;;;4.43;2.35;;;0.80;99.90;;;;;;5050643;28;20214;-54
2024/01/16 00:37:21;;;;;;;4.53;2.22;;;0.80;99.90;;;;;;5050838;28;20237;-52
2024/01/16 00:39:50;;;;;;;6.22;2.90;;;0.90;99.90;;;;;;5050578;28;20256;-53
2024/01/16 00:42:18;;;;;;;5.22;2.97;;;0.90;99.90;;;;;;5050929;28;20308;-53
2024/01/16 00:44:46;;;;;;;4.25;2.53;;;1.00;99.90;;;;;;5050632;28;20301;-52
2024/01/16 00:47:14;;;;;;;4.03;2.22;;;1.00;99.90;;;;;;5050860;28;20679;-52
2024/01/16 00:49:42;;;;;;;9.10;2.33;;;1.00;99.90;;;;;;5050235;28;20198;-52
2024/01/16 00:52:11;;;;;;;8.25;2.15;;;0.90;99.90;;;;;;5050829;28;20308;-52
2024/01/16 00:54:39;;;;;;;5.18;2.30;;;1.00;99.90;;;;;;5050806;28;20202;-52
2024/01/16 00:57:08;;;;;;;8.98;2.88;;;1.00;99.90;;;;;;5049472;28;20238;-57
2024/01/16 00:59:36;;;;;;;4.68;2.03;;;1.00;99.90;;;;;;5055532;28;20254;-56
2024/01/16 01:02:04;;;;;;;6.18;2.28;;;1.00;99.90;;;;;;5061125;28;20205;-57
2024/01/16 01:04:33;;;;;;;6.32;2.40;;;0.90;99.90;;;;;;5054210;28;20214;-52
2024/01/16 01:07:01;;;;;;;5.18;2.22;;;0.90;99.90;;;;;;5054374;28;20238;-55
2024/01/16 01:09:29;;;;;;;7.88;2.55;;;0.80;99.90;;;;;;5053847;28;20305;-56
2024/01/16 01:11:57;;;;;;;6.90;2.60;;;0.80;99.90;;;;;;5054024;28;20245;-52
2024/01/16 01:14:29;;;;;;;2.95;1.92;;;0.80;99.90;;;;;;5054003;28;20202;-54
2024/01/16 01:16:57;;;;;;;3.53;2.47;;;0.80;99.90;;;;;;5054233;28;20233;-52
2024/01/16 01:19:25;;;;;;;4.30;2.28;;;0.70;99.90;;;;;;5053751;28;20233;-55
2024/01/16 01:21:53;;;;;;;9.05;3.30;;;0.60;99.90;;;;;;5052641;28;20198;-52
2024/01/16 01:24:20;;;;;;;5.18;2.70;;;0.60;99.90;;;;;;5053553;28;20283;-53
2024/01/16 01:26:48;;;;;;;7.00;2.80;;;0.60;99.90;;;;;;5053655;28;20622;-52
2024/01/16 01:29:17;;;;;;;4.30;2.65;;;0.60;99.90;;;;;;5053006;28;20202;-54
2024/01/16 01:31:48;;;;;;;5.72;3.22;;;0.60;99.90;;;;;;5053819;28;20202;-52
2024/01/16 01:34:16;;;;;;;10.05;2.58;;;0.60;99.90;;;;;;5053176;28;20241;-54
2024/01/16 01:36:44;;;;;;;4.43;2.85;;;0.60;99.90;;;;;;5053584;28;20297;-52
2024/01/16 01:39:12;;;;;;;11.15;3.22;;;0.60;99.90;;;;;;5053275;28;20592;-54
2024/01/16 01:41:41;;;;;;;5.63;2.45;;;0.60;99.90;;;;;;5053173;28;20260;-55
2024/01/16 01:44:15;;;;;;;6.93;2.95;;;0.60;99.90;;;;;;5053254;28;20221;-52
2024/01/16 01:46:43;;;;;;;11.57;3.15;;;0.60;99.90;;;;;;5051876;28;20202;-52
2024/01/16 01:49:14;;;;;;;6.20;2.63;;;0.60;99.90;;;;;;5053252;28;20205;-53
2024/01/16 01:51:42;;;;;;;4.95;3.00;;;0.60;99.90;;;;;;5053318;28;20216;-52
2024/01/16 01:54:10;;;;;;;6.43;2.80;;;0.60;99.90;;;;;;5052968;28;20233;-52
2024/01/16 01:56:38;;;;;;;5.80;2.90;;;0.60;99.90;;;;;;5053318;28;20197;-52
2024/01/16 01:59:06;;;;;;;4.30;3.13;;;0.60;99.90;;;;;;5052700;28;20206;-58
2024/01/16 02:01:34;;;;;;;9.05;3.22;;;0.50;99.90;;;;;;5051936;28;20232;-53
2024/01/16 02:04:02;;;;;;;7.13;3.20;;;0.50;99.90;;;;;;5052715;28;20225;-53
2024/01/16 02:06:31;;;;;;;7.53;3.50;;;0.50;99.90;;;;;;5052854;28;20230;-54
2024/01/16 02:08:59;;;;;;;5.30;3.13;;;0.50;99.90;;;;;;5044320;28;20198;-55
2024/01/16 02:11:27;;;;;;;4.53;2.80;;;0.50;99.90;;;;;;5052576;28;20194;-53
2024/01/16 02:13:55;;;;;;;6.68;2.88;;;0.50;99.90;;;;;;5052556;28;20240;-56
2024/01/16 02:16:23;;;;;;;6.05;2.85;;;0.60;99.90;;;;;;5053109;28;20209;-58
2024/01/16 02:18:52;;;;;;;4.88;3.47;;;0.60;99.90;;;;;;5052722;28;20240;-52
2024/01/16 02:21:22;;;;;;;11.90;3.42;;;0.60;99.90;;;;;;5052225;28;20222;-52
2024/01/16 02:23:51;;;;;;;4.78;3.08;;;0.60;99.90;;;;;;5052472;28;20229;-52
2024/01/16 02:26:20;;;;;;;6.03;3.25;;;0.60;99.90;;;;;;5052903;28;20652;-53
2024/01/16 02:28:48;;;;;;;9.95;3.45;;;0.60;99.90;;;;;;5052390;28;20263;-52
2024/01/16 02:31:17;;;;;;;9.70;3.50;;;0.60;99.90;;;;;;5052308;28;20275;-52
2024/01/16 02:33:45;;;;;;;3.65;3.00;;;0.60;99.90;;;;;;5051943;28;20229;-55
2024/01/16 02:36:13;;;;;;;6.00;3.50;;;0.60;99.90;;;;;;5041958;28;20202;-55
2024/01/16 02:38:41;;;;;;;6.15;3.60;;;0.60;99.90;;;;;;5046395;28;20209;-55
2024/01/16 02:41:16;;;;;;;8.30;3.35;;;0.60;99.90;;;;;;5032044;28;20218;-52
2024/01/16 02:43:44;;;;;;;6.18;3.10;;;0.60;99.90;;;;;;5032215;28;20292;-52
2024/01/16 02:46:12;;;;;;;6.45;3.17;;;0.60;99.90;;;;;;5040532;28;20202;-52
2024/01/16 02:48:42;;;;;;;8.43;3.28;;;0.60;99.90;;;;;;5032093;28;20206;-52
2024/01/16 02:51:10;;;;;;;5.82;2.97;;;0.60;99.90;;;;;;5039159;28;20666;-54
2024/01/16 02:53:38;;;;;;;6.95;3.30;;;0.60;99.90;;;;;;5051688;28;20222;-56
2024/01/16 02:56:06;;;;;;;8.73;3.35;;;0.60;99.90;;;;;;5051358;28;20206;-54
2024/01/16 02:58:35;;;;;;;9.45;3.67;;;0.60;99.90;;;;;;5037682;28;20702;-56
2024/01/16 03:01:03;;;;;;;5.93;3.00;;;0.70;99.90;;;;;;5043302;28;20253;-52
2024/01/16 03:03:31;;;;;;;6.60;3.05;;;0.70;99.90;;;;;;5051775;28;20233;-52
2024/01/16 03:05:59;;;;;;;6.43;3.25;;;0.70;99.90;;;;;;5050861;28;20202;-52
2024/01/16 03:08:27;;;;;;;5.90;3.60;;;0.60;99.90;;;;;;5038123;28;20226;-53
2024/01/16 03:10:55;;;;;;;4.65;3.47;;;0.70;99.90;;;;;;5034789;28;20560;-52
2024/01/16 03:13:23;;;;;;;5.63;3.00;;;0.60;99.90;;;;;;5032536;28;20261;-52
2024/01/16 03:15:53;;;;;;;5.03;3.08;;;0.60;99.90;;;;;;5034474;28;20214;-53
2024/01/16 03:18:20;;;;;;;6.60;3.60;;;0.60;99.90;;;;;;5037400;28;20211;-54
2024/01/16 03:20:49;;;;;;;5.65;3.08;;;0.60;99.90;;;;;;5030473;28;20312;-56
2024/01/16 03:23:17;;;;;;;7.68;3.72;;;0.50;99.90;;;;;;5031353;28;20234;-55
2024/01/16 03:25:45;;;;;;;5.82;3.42;;;0.50;99.90;;;;;;5031621;28;20301;-56
2024/01/16 03:28:13;;;;;;;6.55;3.67;;;0.50;99.90;;;;;;5038385;28;20199;-56
2024/01/16 03:30:41;;;;;;;8.13;3.78;;;0.50;99.90;;;;;;5031007;28;20207;-55
2024/01/16 03:33:10;;;;;;;7.47;3.60;;;0.50;99.90;;;;;;5031448;28;20226;-56
2024/01/16 03:35:38;;;;;;;11.10;3.00;;;0.50;99.90;;;;;;5043456;28;20252;-56
2024/01/16 03:38:06;;;;;;;8.57;3.53;;;0.50;99.90;;;;;;5039944;28;20679;-56
2024/01/16 03:40:34;;;;;;;8.02;3.53;;;0.60;99.90;;;;;;5034570;28;20203;-56
2024/01/16 03:43:02;;;;;;;3.28;3.00;;;0.60;99.90;;;;;;5046081;28;20253;-54
2024/01/16 03:45:30;;;;;;;6.43;3.63;;;0.60;99.90;;;;;;5031465;28;20214;-55
2024/01/16 03:47:59;;;;;;;7.57;2.90;;;0.60;99.90;;;;;;5037823;28;20213;-55
2024/01/16 03:50:28;;;;;;;5.72;3.03;;;0.70;99.90;;;;;;5039014;28;20256;-55
2024/01/16 03:52:56;;;;;;;6.30;3.20;;;0.70;99.90;;;;;;5031086;28;20242;-55
2024/01/16 03:55:24;;;;;;;7.45;2.58;;;0.70;99.90;;;;;;5031051;28;20241;-55
2024/01/16 03:57:52;;;;;;;6.22;3.15;;;0.70;99.90;;;;;;5037551;28;20202;-54
2024/01/16 04:00:20;;;;;;;7.18;3.47;;;0.60;99.90;;;;;;5030717;28;20230;-55
2024/01/16 04:02:48;;;;;;;8.65;3.85;;;0.60;99.90;;;;;;5031139;28;20261;-55
2024/01/16 04:05:16;;;;;;;3.10;2.72;;;0.50;99.90;;;;;;5040741;28;20255;-55
2024/01/16 04:07:45;;;;;;;10.43;3.92;;;0.50;99.90;;;;;;5043097;28;20749;-55
2024/01/16 04:10:13;;;;;;;7.68;3.60;;;0.40;99.90;;;;;;5050484;28;20624;-57
2024/01/16 04:12:41;;;;;;;7.22;3.10;;;0.40;99.90;;;;;;5050850;28;20253;-56
2024/01/16 04:15:10;;;;;;;3.58;2.80;;;0.40;99.90;;;;;;5046539;28;20384;-54
2024/01/16 04:17:38;;;;;;;6.68;3.35;;;0.40;99.90;;;;;;5036855;28;20748;-56
2024/01/16 04:20:07;;;;;;;10.27;3.40;;;0.40;99.90;;;;;;5030816;28;20225;-55
2024/01/16 04:22:36;;;;;;;7.93;3.28;;;0.40;99.90;;;;;;5032154;28;20230;-56
2024/01/16 04:25:05;;;;;;;7.65;3.72;;;0.30;99.90;;;;;;5030931;28;20199;-56
2024/01/16 04:27:33;;;;;;;8.43;4.05;;;0.30;99.90;;;;;;5035927;28;20198;-56
2024/01/16 04:30:01;;;;;;;9.43;3.67;;;0.30;99.90;;;;;;5033662;28;20205;-54
2024/01/16 04:32:29;;;;;;;4.68;3.22;;;0.30;99.90;;;;;;5051184;28;20277;-55
2024/01/16 04:34:57;;;;;;;8.27;3.50;;;0.30;99.90;;;;;;5035560;28;20206;-57
2024/01/16 04:37:25;;;;;;;8.20;3.67;;;0.30;99.90;;;;;;5038744;28;20260;-56
2024/01/16 04:39:54;;;;;;;7.25;3.58;;;0.30;99.90;;;;;;5034462;28;20677;-56
2024/01/16 04:42:23;;;;;;;9.35;3.10;;;0.30;99.90;;;;;;5042861;28;20309;-54
2024/01/16 04:44:51;;;;;;;7.78;3.08;;;0.30;99.90;;;;;;5039560;28;20308;-55
2024/01/16 04:47:19;;;;;;;9.60;3.05;;;0.30;99.90;;;;;;5037818;28;20676;-56
2024/01/16 04:49:47;;;;;;;11.27;3.95;;;0.30;99.90;;;;;;5033913;28;20218;-54
2024/01/16 04:52:15;;;;;;;7.82;3.22;;;0.30;99.90;;;;;;5033564;28;20257;-56
2024/01/16 04:54:45;;;;;;;7.28;3.53;;;0.20;99.90;;;;;;5033638;28;20647;-54
2024/01/16 04:57:13;;;;;;;7.03;3.35;;;0.30;99.90;;;;;;5036500;28;20637;-54
2024/01/16 04:59:43;;;;;;;9.52;3.63;;;0.20;99.90;;;;;;5035593;28;20687;-54
2024/01/16 05:02:11;;;;;;;4.97;3.03;;;0.20;99.90;;;;;;5048784;28;20233;-55
2024/01/16 05:04:39;;;;;;;9.70;3.30;;;0.20;99.90;;;;;;5053905;28;20201;-60
2024/01/16 05:07:07;;;;;;;5.55;3.15;;;0.20;99.90;;;;;;5052997;28;20306;-59
2024/01/16 05:09:35;;;;;;;7.57;3.20;;;0.20;99.90;;;;;;5053597;28;20234;-59
2024/01/16 05:12:03;;;;;;;4.82;3.72;;;0.10;99.90;;;;;;5052945;28;20266;-58
2024/01/16 05:14:31;;;;;;;5.30;3.05;;;0.10;99.90;;;;;;5053691;28;20251;-58
2024/01/16 05:17:00;;;;;;;6.80;3.72;;;0.10;99.90;;;;;;5051572;28;20198;-60
2024/01/16 05:19:28;;;;;;;6.80;3.45;;;0.10;99.90;;;;;;5041158;28;20279;-59
2024/01/16 05:21:56;;;;;;;6.03;3.40;;;0.10;99.90;;;;;;5051587;28;20716;-59
2024/01/16 05:24:24;;;;;;;7.43;3.83;;;0.10;99.90;;;;;;5039264;28;20616;-59
2024/01/16 05:26:52;;;;;;;8.35;3.45;;;0.10;99.90;;;;;;5053552;28;20263;-60
2024/01/16 05:29:20;;;;;;;8.13;3.38;;;0.10;99.90;;;;;;5040079;28;20199;-59
2024/01/16 05:31:48;;;;;;;4.57;3.42;;;0.10;99.90;;;;;;5033656;28;20238;-52
2024/01/16 05:34:17;;;;;;;5.57;3.60;;;0.10;99.90;;;;;;5041614;28;20587;-55
2024/01/16 05:36:45;;;;;;;6.47;3.40;;;0.10;99.90;;;;;;5034725;28;20747;-57
2024/01/16 05:39:13;;;;;;;9.57;3.47;;;0.00;99.90;;;;;;5033460;28;20206;-52
2024/01/16 05:41:41;;;;;;;3.30;2.95;;;0.00;99.90;;;;;;5033426;28;20250;-52
2024/01/16 05:44:09;;;;;;;6.05;2.92;;;0.00;99.90;;;;;;5040744;28;20226;-52
2024/01/16 05:46:37;;;;;;;4.90;3.65;;;0.00;99.90;;;;;;5040579;28;20205;-56
2024/01/16 05:49:04;;;;;;;4.15;3.55;;;0.00;99.90;;;;;;5052108;28;20285;-54
2024/01/16 05:51:34;;;;;;;10.32;3.65;;;-0.10;99.90;;;;;;5052768;28;20634;-54
2024/01/16 05:54:03;;;;;;;7.55;3.83;;;-0.10;99.90;;;;;;5052759;28;20225;-54
2024/01/16 05:56:32;;;;;;;4.35;3.42;;;-0.10;99.90;;;;;;5038839;28;20227;-55
2024/01/16 05:59:00;;;;;;;4.85;3.45;;;-0.10;99.90;;;;;;5047251;28;20310;-55
2024/01/16 06:01:28;;;;;;;6.78;3.63;;;-0.10;99.90;;;;;;5050066;28;20202;-54
2024/01/16 06:03:55;;;;;;;7.05;4.80;;;-0.10;99.90;;;;;;5050574;28;20257;-54
2024/01/16 06:06:23;;;;;;;10.60;4.50;;;-0.10;99.90;;;;;;5040487;28;20202;-52
2024/01/16 06:08:52;;;;;;;10.15;4.38;;;-0.20;99.90;;;;;;5040012;28;20253;-52
2024/01/16 06:11:30;;;;;;;7.55;4.03;;;-0.20;99.90;;;;;;5044086;28;20675;-52
2024/01/16 06:13:58;;;;;;;11.38;4.35;;;-0.20;99.90;;;;;;5050865;28;20222;-55
2024/01/16 06:16:26;;;;;;;10.75;3.85;;;-0.20;99.90;;;;;;5052875;28;20236;-56
2024/01/16 06:18:53;;;;;;;10.98;4.53;;;-0.30;99.90;;;;;;5050335;28;20293;-57
2024/01/16 06:21:21;;;;;;;7.47;4.57;;;-0.30;99.90;;;;;;5049293;28;20202;-57
2024/01/16 06:23:53;;;;;;;12.75;4.47;;;-0.30;99.90;;;;;;5040961;28;20230;-57
2024/01/16 06:26:21;;;;;;;8.35;4.90;;;-0.30;99.90;;;;;;5052310;28;20216;-55
2024/01/16 06:28:49;;;;;;;10.73;5.43;;;-0.40;99.90;;;;;;5044491;28;20626;-56
2024/01/16 06:31:17;;;;;;;10.38;5.50;;;-0.40;99.90;;;;;;5041163;28;20237;-57
2024/01/16 06:33:45;;;;;;;6.35;4.97;;;-0.40;99.90;;;;;;5052454;28;20644;-58
2024/01/16 06:36:13;;;;;;;13.05;6.22;;;-0.40;99.90;;;;;;5039110;28;20550;-57
2024/01/16 06:38:41;;;;;;;7.35;5.05;;;-0.40;99.90;;;;;;5046831;28;20242;-60
2024/01/16 06:41:10;;;;;;;7.07;4.80;;;-0.50;99.90;;;;;;5049214;28;20289;-60
2024/01/16 06:43:39;;;;;;;14.20;5.88;;;-0.50;99.90;;;;;;5047247;28;20229;-60
2024/01/16 06:46:07;;;;;;;7.80;5.85;;;-0.50;99.90;;;;;;5050410;28;20198;-58
2024/01/16 06:48:36;;;;;;;14.43;6.15;;;-0.60;99.90;;;;;;5044414;28;20206;-59
2024/01/16 06:51:04;;;;;;;14.95;6.57;;;-0.50;99.90;;;;;;5051014;28;20289;-59
2024/01/16 06:53:32;;;;;;;13.35;5.80;;;-0.50;99.90;;;;;;5051708;28;20249;-60
2024/01/16 06:56:00;;;;;;;12.70;6.80;;;-0.50;99.90;;;;;;5047415;28;20209;-59
2024/01/16 06:58:29;;;;;;;12.20;6.72;;;-0.50;99.90;;;;;;5049045;28;20208;-58
2024/01/16 07:00:58;;;;;;;13.80;6.63;;;-0.50;99.90;;;;;;5041071;28;20210;-58
2024/01/16 07:03:26;;;;;;;8.32;6.45;;;-0.60;99.90;;;;;;5049738;28;20237;-60
2024/01/16 07:05:54;;;;;;;13.85;7.07;;;-0.60;99.90;;;;;;5041114;28;20751;-60
2024/01/16 07:08:22;;;;;;;13.57;6.47;;;-0.60;99.90;;;;;;5053510;28;20626;-59
2024/01/16 07:10:50;;;;;;;12.77;7.13;;;-0.60;99.90;;;;;;5049642;28;20849;-58
2024/01/16 07:13:18;;;;;;;13.18;7.22;;;-0.60;99.90;;;;;;5051495;28;20221;-60
2024/01/16 07:15:47;;;;;;;11.02;7.18;;;-0.60;99.90;;;;;;5051267;28;20263;-60
2024/01/16 07:18:15;;;;;;;9.98;7.05;;;-0.60;99.90;;;;;;5051365;28;20226;-59
2024/01/16 07:20:45;;;;;;;14.15;7.18;;;-0.60;99.90;;;;;;5048821;28;20285;-59
2024/01/16 07:23:13;;;;;;;12.23;7.25;;;-0.60;99.90;;;;;;5057054;28;20615;-60
2024/01/16 07:25:41;;;;;;;11.43;7.22;;;-0.60;99.90;;;;;;5048488;28;20206;-60
2024/01/16 07:28:09;;;;;;;11.75;7.05;;;-0.60;99.90;;;;;;5064583;28;20304;-60
2024/01/16 07:30:37;;;;;;;14.57;7.18;;;-0.60;99.90;;;;;;5070194;28;20292;-58
2024/01/16 07:33:06;;;;;;;12.38;7.65;;;-0.70;99.90;;;;;;5051078;28;20214;-58
2024/01/16 07:35:34;;;;;;;11.18;7.60;;;-0.60;99.90;;;;;;5061235;28;20217;-59
2024/01/16 07:38:03;;;;;;;13.45;7.75;;;-0.60;99.90;;;;;;5069985;28;20662;-58
2024/01/16 07:40:32;;;;;;;14.23;8.30;;;-0.60;99.90;;;;;;5051232;28;20240;-59
2024/01/16 07:43:00;;;;;;;14.70;7.28;;;-0.60;99.90;;;;;;5051362;28;20234;-59
2024/01/16 07:45:28;;;;;;;19.05;7.57;;;-0.60;99.90;;;;;;5055257;28;20206;-59
2024/01/16 07:47:56;;;;;;;14.65;7.75;;;-0.60;99.90;;;;;;5070806;28;20897;-59
2024/01/16 07:50:25;;;;;;;16.58;7.53;;;-0.50;99.90;;;;;;5050969;28;20205;-56
2024/01/16 07:52:53;;;;;;;12.40;7.35;;;-0.50;99.90;;;;;;5051644;28;20305;-58
2024/01/16 07:55:21;;;;;;;15.13;6.95;;;-0.50;99.90;;;;;;5051198;28;20638;-58
2024/01/16 07:57:52;;;;;;;14.25;7.35;;;-0.50;99.90;;;;;;5051470;28;20755;-57
2024/01/16 08:00:20;;;;;;;15.60;7.38;;;-0.50;99.90;;;;;;5051047;28;20645;-56
2024/01/16 08:02:48;;;;;;;17.13;7.82;;;-0.50;99.90;;;;;;5051274;28;20234;-57
2024/01/16 08:05:16;;;;;;;13.70;7.43;;;-0.40;99.90;;;;;;5051190;28;20201;-57
2024/01/16 08:07:46;;;;;;;13.07;7.10;;;-0.40;99.90;;;;;;5052518;28;20213;-57
2024/01/16 08:10:14;;;;;;;16.45;7.65;;;-0.40;99.90;;;;;;5055274;28;20620;-57
2024/01/16 08:12:46;;;;;;;16.13;7.63;;;-0.40;99.90;;;;;;5054957;28;20233;-60
2024/01/16 08:15:13;;;;;;;14.35;7.25;;;-0.30;99.90;;;;;;5055024;28;20206;-60
2024/01/16 08:17:41;;;;;;;13.65;7.30;;;-0.30;99.90;;;;;;5055390;28;20237;-57
2024/01/16 08:20:10;;;;;;;14.85;7.18;;;-0.30;99.90;;;;;;5054641;28;20205;-60
2024/01/16 08:22:38;;;;;;;14.73;7.65;;;-0.20;99.90;;;;;;5052733;28;20277;-59
2024/01/16 08:25:08;;;;;;;12.63;7.43;;;-0.20;99.90;;;;;;5049727;28;20233;-60
2024/01/16 08:27:37;;;;;;;15.73;7.13;;;-0.20;99.90;;;;;;5055204;28;20206;-60
2024/01/16 08:30:07;;;;;;;15.82;7.00;;;-0.20;99.90;;;;;;5049017;28;20632;-60
2024/01/16 08:32:35;;;;;;;11.13;7.75;;;-0.20;99.90;;;;;;5051656;28;20598;-60
2024/01/16 08:35:03;;;;;;;17.15;7.35;;;-0.10;99.90;;;;;;5048111;28;20289;-61
2024/01/16 08:37:34;;;;;;;17.95;7.97;;;-0.10;99.90;;;;;;5053297;28;20238;-60
2024/01/16 08:40:03;;;;;;;18.02;7.05;;;-0.10;99.90;;;;;;5053459;28;20567;-61
2024/01/16 08:42:32;;;;;;;13.35;7.70;;;-0.10;99.90;;;;;;5054122;28;20735;-61
2024/01/16 08:45:00;;;;;;;14.80;7.28;;;-0.10;99.90;;;;;;5053801;28;20272;-61
2024/01/16 08:47:28;;;;;;;12.77;7.32;;;0.00;99.90;;;;;;5053104;28;20798;-61
2024/01/16 08:49:57;;;;;;;16.73;7.60;;;0.00;99.90;;;;;;5045957;28;20253;-60
2024/01/16 08:52:25;;;;;;;11.20;7.90;;;0.10;99.90;;;;;;5051718;28;20450;-60
2024/01/16 08:54:53;;;;;;;14.05;7.95;;;0.20;99.90;;;;;;5053090;28;21229;-60
2024/01/16 08:57:21;;;;;;;14.07;7.38;;;0.20;99.90;;;;;;5045193;28;20676;-60
2024/01/16 08:59:54;;;;;;;17.25;7.65;;;0.20;99.90;;;;;;5052410;28;20210;-60
2024/01/16 09:02:22;;;;;;;12.98;7.95;;;0.20;99.90;;;;;;5053169;28;20234;-60
2024/01/16 09:04:50;;;;;;;13.52;7.60;;;0.30;99.90;;;;;;5053458;28;20247;-60
2024/01/16 09:07:18;;;;;;;14.98;8.07;;;0.30;99.90;;;;;;5053751;28;20206;-59
2024/01/16 09:09:47;;;;;;;15.70;7.10;;;0.30;99.90;;;;;;5053242;28;20213;-58
2024/01/16 09:12:16;;;;;;;14.25;7.05;;;0.30;99.90;;;;;;5052475;28;20237;-59
2024/01/16 09:14:44;;;;;;;13.80;7.40;;;0.30;99.90;;;;;;5061603;28;20210;-58
2024/01/16 09:17:13;;;;;;;15.23;7.00;;;0.40;99.90;;;;;;5062991;28;20592;-58
2024/01/16 09:19:41;;;;;;;12.38;7.38;;;0.40;99.90;;;;;;5067081;28;20201;-58
2024/01/16 09:22:09;;;;;;;17.92;8.02;;;0.30;99.90;;;;;;5063735;28;20626;-58
2024/01/16 09:24:37;;;;;;;16.85;7.85;;;0.20;99.90;;;;;;5053376;28;20222;-59
2024/01/16 09:27:06;;;;;;;16.33;7.40;;;0.20;99.90;;;;;;5053482;28;20201;-58
2024/01/16 09:29:34;;;;;;;13.93;8.02;;;0.20;99.90;;;;;;5058587;28;20205;-59
2024/01/16 09:32:02;;;;;;;20.75;7.85;;;0.30;99.90;;;;;;5072373;28;20258;-58
2024/01/16 09:34:31;;;;;;;15.15;7.57;;;0.20;99.90;;;;;;5053419;28;20206;-57
2024/01/16 09:37:02;;;;;;;16.27;8.00;;;0.30;99.90;;;;;;5053060;28;20206;-58
2024/01/16 09:39:31;;;;;;;16.17;7.88;;;0.30;99.90;;;;;;5052647;28;20710;-59
2024/01/16 09:42:00;;;;;;;14.63;7.63;;;0.40;99.90;;;;;;5052780;28;20675;-58
2024/01/16 09:44:28;;;;;;;15.77;7.63;;;0.50;99.90;;;;;;5052864;28;20593;-58
2024/01/16 09:46:56;;;;;;;20.13;7.72;;;0.60;99.90;;;;;;5052981;28;20260;-58
2024/01/16 09:49:25;;;;;;;14.90;7.55;;;0.60;99.90;;;;;;5052367;28;20629;-57
2024/01/16 09:51:54;;;;;;;13.05;7.05;;;0.60;99.90;;;;;;5052834;28;20205;-57
2024/01/16 09:54:22;;;;;;;13.85;7.05;;;0.70;99.90;;;;;;5053105;28;20292;-60
2024/01/16 09:56:52;;;;;;;15.20;7.43;;;0.70;99.90;;;;;;5052672;28;20240;-58
2024/01/16 09:59:20;;;;;;;15.63;7.28;;;0.80;99.90;;;;;;5052434;28;20575;-59
2024/01/16 10:01:49;;;;;;;16.92;8.05;;;1.00;99.90;;;;;;5052586;28;20667;-59
2024/01/16 10:04:17;;;;;;;17.63;7.80;;;1.10;99.90;;;;;;5052559;28;20828;-60
2024/01/16 10:06:46;;;;;;;13.20;7.43;;;1.20;99.90;;;;;;5052674;28;20202;-59
2024/01/16 10:09:16;;;;;;;15.38;7.38;;;1.20;99.90;;;;;;5052394;28;20206;-59
2024/01/16 10:11:44;;;;;;;20.85;7.80;;;1.20;99.90;;;;;;5051767;28;20267;-59
2024/01/16 10:14:12;;;;;;;13.65;7.30;;;1.20;99.90;;;;;;5052766;28;20225;-59
2024/01/16 10:17:05;;;;;;;15.02;7.32;;;1.30;99.90;;;;;;5052576;28;20664;-58
2024/01/16 10:19:33;;;;;;;16.17;7.25;;;1.30;99.90;;;;;;5051164;28;20198;-58
2024/01/16 10:22:16;;;;;;;15.60;7.47;;;1.40;99.90;;;;;;5052213;28;20225;-57
2024/01/16 10:24:45;;;;;;;15.43;7.93;;;1.40;99.90;;;;;;5052093;28;20710;-57
2024/01/16 10:27:15;;;;;;;17.30;7.13;;;1.40;99.90;;;;;;5052445;28;20249;-58
2024/01/16 10:29:57;;;;;;;13.75;7.40;;;1.50;99.90;;;;;;5051185;28;20207;-58
2024/01/16 10:32:29;;;;;;;12.13;7.00;;;1.60;99.90;;;;;;5051813;28;20308;-57
2024/01/16 10:35:08;;;;;;;13.10;7.03;;;1.70;99.90;;;;;;5052142;28;20285;-60
2024/01/16 10:37:43;;;;;;;14.23;7.05;;;1.80;99.90;;;;;;5045650;28;20216;-60
2024/01/16 10:40:18;;;;;;;12.90;6.93;;;1.80;99.90;;;;;;5050984;28;20274;-58
2024/01/16 10:42:48;;;;;;;12.45;6.97;;;1.90;99.90;;;;;;5051137;28;20290;-61
2024/01/16 10:45:18;;;;;;;14.45;6.97;;;1.90;99.90;;;;;;5051863;28;20707;-59
2024/01/16 10:47:47;;;;;;;17.02;6.93;;;2.00;99.90;;;;;;5051481;28;20292;-58
2024/01/16 10:50:15;;;;;;;15.45;7.32;;;1.90;99.90;;;;;;5051170;28;20206;-59
2024/01/16 10:52:49;;;;;;;13.10;7.45;;;1.90;99.90;;;;;;5051903;28;20698;-58
2024/01/16 10:55:22;;;;;;;14.65;7.35;;;1.90;99.90;;;;;;5051417;28;20251;-58
2024/01/16 10:57:49;;;;;;;11.55;6.35;;;1.90;99.90;;;;;;5052328;28;20206;-57
2024/01/16 11:00:19;;;;;;;12.93;6.68;;;1.90;99.90;;;;;;5050821;28;20264;-59
2024/01/16 11:02:51;;;;;;;13.48;6.45;;;2.00;99.90;;;;;;5049700;28;20257;-59
2024/01/16 11:05:19;;;;;;;13.80;6.32;;;2.00;99.90;;;;;;5092930;22;20251;-60
2024/01/16 11:07:47;;;;;;;14.93;6.68;;;2.00;99.90;;;;;;5071182;28;20215;-60
2024/01/16 11:10:15;;;;;;;10.95;6.82;;;2.10;99.90;;;;;;5070603;28;20263;-60
2024/01/16 11:12:44;;;;;;;12.93;6.28;;;2.10;99.90;;;;;;5071324;28;20240;-60
2024/01/16 11:15:12;;;;;;;13.05;6.65;;;2.20;99.90;;;;;;5070425;28;20256;-60
2024/01/16 11:17:41;;;;;;;14.20;6.60;;;2.20;99.90;;;;;;5061580;28;20746;-60
2024/01/16 11:20:11;;;;;;;12.15;6.10;;;2.30;99.90;;;;;;5048980;28;20772;-60
2024/01/16 11:22:59;;;;;;;12.27;6.47;;;2.40;99.90;;;;;;5067546;28;20205;-60
2024/01/16 11:25:32;;;;;;;12.65;5.82;;;2.40;99.90;;;;;;5071295;28;20225;-60
2024/01/16 11:28:08;;;;;;;11.73;6.25;;;2.50;99.90;;;;;;5071666;28;20216;-60
2024/01/16 11:30:36;;;;;;;13.95;6.55;;;2.70;99.90;;;;;;5069831;28;20255;-60
2024/01/16 11:33:05;;;;;;;11.02;6.20;;;2.90;99.90;;;;;;5051691;28;20213;-60
2024/01/16 11:35:33;;;;;;;12.32;6.63;;;3.10;99.90;;;;;;5051425;28;20218;-61
2024/01/16 11:38:05;;;;;;;17.85;6.28;;;3.10;99.90;;;;;;5051531;28;20681;-60
2024/01/16 11:40:33;;;;;;;11.63;6.55;;;3.20;99.90;;;;;;5043182;28;20655;-60
2024/01/16 11:43:38;;;;;;;11.38;5.47;;;3.20;99.90;;;;;;5049764;28;20210;-60
2024/01/16 11:46:07;;;;;;;13.07;5.95;;;3.10;99.90;;;;;;5051097;28;20251;-60
2024/01/16 11:48:35;;;;;;;14.85;5.78;;;3.10;99.90;;;;;;5051483;28;20202;-60
2024/01/16 11:51:23;;;;;;;14.32;5.90;;;3.10;99.90;;;;;;5051039;28;20209;-61
2024/01/16 11:53:51;;;;;;;12.93;6.20;;;3.20;99.90;;;;;;5045784;28;20268;-61
2024/01/16 11:56:40;;;;;;;17.45;6.00;;;3.20;99.90;;;;;;5047993;28;20209;-60
2024/01/16 11:59:41;;;;;;;16.02;6.38;;;3.30;99.90;;;;;;5050630;28;20206;-60
2024/01/16 12:02:11;;;;;;;8.27;5.55;;;3.30;99.90;;;;;;5051219;28;20301;-60
2024/01/16 12:04:39;;;;;;;10.30;5.72;;;3.20;99.90;;;;;;5051223;28;20236;-60
2024/01/16 12:07:08;;;;;;;13.02;5.43;;;3.10;99.90;;;;;;5051023;28;20230;-60
2024/01/16 12:09:36;;;;;;;11.60;5.03;;;3.20;99.90;;;;;;5051030;28;20247;-60
2024/01/16 12:12:05;;;;;;;17.55;6.22;;;3.10;99.90;;;;;;5050838;28;20293;-61
2024/01/16 12:14:33;;;;;;;10.10;4.78;;;3.20;99.90;;;;;;5050779;28;20226;-60
2024/01/16 12:17:12;;;;;;;13.52;6.05;;;3.30;99.90;;;;;;5058260;28;20685;-60
2024/01/16 12:19:42;;;;;;;11.80;5.43;;;3.30;99.90;;;;;;5070901;28;20240;-61
2024/01/16 12:22:11;;;;;;;12.45;5.90;;;3.40;99.90;;;;;;5063633;28;20747;-60
2024/01/16 12:24:39;;;;;;;10.90;5.75;;;3.50;99.90;;;;;;5042000;28;20228;-60
2024/01/16 12:27:08;;;;;;;11.23;5.30;;;3.60;99.90;;;;;;5050380;28;20324;-61
2024/01/16 12:29:36;;;;;;;9.52;5.10;;;3.80;99.90;;;;;;5050816;28;20224;-61
2024/01/16 12:32:09;;;;;;;9.57;5.20;;;3.80;99.90;;;;;;5058526;28;20206;-60
2024/01/16 12:34:46;;;;;;;11.63;4.85;;;3.80;99.90;;;;;;5070820;28;20237;-61
2024/01/16 12:37:14;;;;;;;10.50;5.20;;;3.70;99.90;;;;;;5067342;28;20197;-61
2024/01/16 12:39:43;;;;;;;11.75;5.70;;;3.70;99.90;;;;;;5049652;28;20209;-61
2024/01/16 12:42:11;;;;;;;8.60;5.40;;;3.70;99.90;;;;;;5050265;28;20635;-60
2024/01/16 12:44:39;;;;;;;9.65;4.95;;;3.70;99.90;;;;;;5054609;28;20717;-61
2024/01/16 12:47:07;;;;;;;13.48;5.88;;;3.70;99.90;;;;;;5070385;28;20229;-60
2024/01/16 12:49:43;;;;;;;11.55;5.65;;;3.60;99.90;;;;;;5041764;28;20588;-60
2024/01/16 12:52:19;;;;;;;10.95;4.88;;;3.50;99.90;;;;;;5050019;28;20216;-60
2024/01/16 12:54:47;;;;;;;8.75;4.70;;;3.40;99.90;;;;;;5057607;28;20287;-61
2024/01/16 12:57:19;;;;;;;10.80;5.25;;;3.40;99.90;;;;;;5073308;28;20564;-61
2024/01/16 12:59:48;;;;;;;11.55;5.13;;;3.30;99.90;;;;;;5073266;28;20209;-61